Share

Alpine, KY

KKYBURNS2 Elev 1109 ft | 36.90 °N, 84.56 °W | Change Station

Current weather conditions updated 1 second ago

Clear
Clear
61.0 °F
Feels Like 61.0 °F
N
0.0
Wind Variable Wind from NW
Gusts 0.0 mph
Sunrise 7:01 AM
Sunset 8:14 PM
Moon Waning Gibbous

Tomorrow is forecast to be Much Cooler than today.

Pressure 30.28 in
Visibility 10.0 miles
Clouds Clear
Dew Point 24 °F
Humidity 24%
Rainfall 0.00 in
Snow Depth Not available.
UV 0 out of 16
Pollen 10.40 out of 12
Air Quality Not available.
Flu Activity Sporadic
METAR KSME 180035Z AUTO 00000KT 10SM CLR 17/M05 A3028 RMK AO2

More Conditions Fewer Conditions

Pressure 30.28 in
Visibility 10.0 miles
Clouds Clear
Dew Point 24 °F
Humidity 24%
Rainfall 0.00 in
Snow Depth Not available.
UV 0 out of 16
Pollen 10.40 out of 12
Air Quality Not available.
Flu Activity Sporadic
METAR KSME 180035Z AUTO 00000KT 10SM CLR 17/M05 A3028 RMK AO2

More Conditions Fewer Conditions

10-Day Forecast

Almanac

Astronomy

Apr. 17, 2014 Rise Set
Actual Time 7:01 AM EDT 8:14 PM EDT
Civil Twilight 6:34 AM EDT 8:41 PM EDT
Nautical Twilight 6:02 AM EDT 9:13 PM EDT
Astronomical Twilight 5:28 AM EDT 9:47 PM EDT
Moon 10:56 PM EDT (4/17) 8:34 AM EDT (4/17)
Length of Visible Light 14h 07m
Length of Day
13h 13m
Tomorrow will be 2m 13s longer.
Waning Gibbous, 91% of the Moon is Illuminated
Today
Waning Gibbous
Apr 22
Last Quarter
Apr 29
New
May 6
First Quarter
May 14
Full

Today's Extremes

State Highs State Lows

Community

  • Morning Light
    Morning Light
  • New Day
    New Day
  • Lake Michigan Sunrise
    Lake Michigan Sunrise
  • sunset from izmir, narlıdere
    sunset from izmir, narlıdere
  • oregon cherry
    oregon cherry

WunderPhotos

Upload Photos

1,702,189 photos uploaded!

WunderBlogs® & News

Nearby

Snow Depth

Station Depth Elevation
No new snow has been reported.

Coastal Water Temperatures

Place Temperature
No Stations Reporting

Earthquake Activity

City Distance Mag. Time & Date
Englewood, Tennessee 103 miles 2.8 10:34 PM EDT
2014-04-12
Minimum magnitude displayed is 2.5.

Nearby Weather Stations

Station Location Temp. Dew Point Humidity Wind Precip. Elev Updated Type
Burnside, KY 61.0 °F 24 °F 24% NW  at  0.0 mph 0.00 in / hr 1109 ft 8:49 PM EDT Rapid Fire
RAWS SOMERSET KY, Ferguson, KY 68 °F 24 °F 19% NE  at  2 mph 0.00 in / hr 920 ft 8:01 PM EDT MADIS
HALLS BACKYARD WEATHER, SCIENCE HILL, KY 57.0 °F 33 °F 40% West  at  0.0 mph 0.00 in / hr 1109 ft 8:48 PM EDT Normal

Show More Stations Show Fewer Stations

What do you think?

We're not finished. Please let us know what you like, what you don't like, and what you are still missing.